sensor_id;sensor_type;location;lat;lon;timestamp;P1;durP1;ratioP1;P2;durP2;ratioP2
21816;SDS011;13247;47.504;7.382;2023-03-23T00:01:49;8.70;;;3.10;;
21816;SDS011;13247;47.504;7.382;2023-03-23T00:04:34;5.28;;;3.00;;
21816;SDS011;13247;47.504;7.382;2023-03-23T00:07:20;6.22;;;3.22;;
21816;SDS011;13247;47.504;7.382;2023-03-23T00:10:06;20.08;;;7.95;;
21816;SDS011;13247;47.504;7.382;2023-03-23T00:12:51;22.40;;;8.52;;
21816;SDS011;13247;47.504;7.382;2023-03-23T00:15:36;13.77;;;6.63;;
21816;SDS011;13247;47.504;7.382;2023-03-23T00:18:25;14.85;;;5.85;;
21816;SDS011;13247;47.504;7.382;2023-03-23T00:21:09;9.85;;;5.40;;
21816;SDS011;13247;47.504;7.382;2023-03-23T00:23:54;14.57;;;8.07;;
21816;SDS011;13247;47.504;7.382;2023-03-23T00:26:39;12.60;;;6.32;;
21816;SDS011;13247;47.504;7.382;2023-03-23T00:29:24;16.85;;;7.85;;
21816;SDS011;13247;47.504;7.382;2023-03-23T00:32:09;10.52;;;4.95;;
21816;SDS011;13247;47.504;7.382;2023-03-23T00:35:00;8.43;;;4.05;;
21816;SDS011;13247;47.504;7.382;2023-03-23T00:37:44;3.88;;;1.88;;
21816;SDS011;13247;47.504;7.382;2023-03-23T00:40:29;5.88;;;3.47;;
21816;SDS011;13247;47.504;7.382;2023-03-23T00:43:14;5.88;;;2.90;;
21816;SDS011;13247;47.504;7.382;2023-03-23T00:46:00;5.45;;;2.80;;
21816;SDS011;13247;47.504;7.382;2023-03-23T00:48:45;4.70;;;2.10;;
21816;SDS011;13247;47.504;7.382;2023-03-23T00:51:30;6.63;;;2.10;;
21816;SDS011;13247;47.504;7.382;2023-03-23T00:54:14;3.83;;;2.10;;
21816;SDS011;13247;47.504;7.382;2023-03-23T00:56:59;5.20;;;2.60;;
21816;SDS011;13247;47.504;7.382;2023-03-23T00:59:44;4.55;;;2.22;;
21816;SDS011;13247;47.504;7.382;2023-03-23T01:02:29;3.92;;;1.67;;
21816;SDS011;13247;47.504;7.382;2023-03-23T01:05:13;10.07;;;3.53;;
21816;SDS011;13247;47.504;7.382;2023-03-23T01:07:59;7.30;;;3.10;;
21816;SDS011;13247;47.504;7.382;2023-03-23T01:10:43;8.02;;;2.70;;
21816;SDS011;13247;47.504;7.382;2023-03-23T01:13:28;4.75;;;3.00;;
21816;SDS011;13247;47.504;7.382;2023-03-23T01:16:12;7.95;;;2.53;;
21816;SDS011;13247;47.504;7.382;2023-03-23T01:18:58;3.95;;;2.38;;
21816;SDS011;13247;47.504;7.382;2023-03-23T01:21:43;3.60;;;2.17;;
21816;SDS011;13247;47.504;7.382;2023-03-23T01:24:28;3.38;;;1.88;;
21816;SDS011;13247;47.504;7.382;2023-03-23T01:27:14;3.80;;;1.60;;
21816;SDS011;13247;47.504;7.382;2023-03-23T01:29:58;1.35;;;1.00;;
21816;SDS011;13247;47.504;7.382;2023-03-23T01:32:43;1.48;;;1.25;;
21816;SDS011;13247;47.504;7.382;2023-03-23T01:35:28;2.47;;;1.58;;
21816;SDS011;13247;47.504;7.382;2023-03-23T01:38:12;1.77;;;1.20;;
21816;SDS011;13247;47.504;7.382;2023-03-23T01:40:57;2.53;;;1.60;;
21816;SDS011;13247;47.504;7.382;2023-03-23T01:46:47;1.70;;;1.10;;
21816;SDS011;13247;47.504;7.382;2023-03-23T01:49:36;1.58;;;1.30;;
21816;SDS011;13247;47.504;7.382;2023-03-23T01:52:26;2.17;;;1.17;;
21816;SDS011;13247;47.504;7.382;2023-03-23T01:55:12;1.45;;;1.35;;
21816;SDS011;13247;47.504;7.382;2023-03-23T01:57:57;1.85;;;1.48;;
21816;SDS011;13247;47.504;7.382;2023-03-23T02:00:41;2.95;;;1.48;;
21816;SDS011;13247;47.504;7.382;2023-03-23T02:03:27;4.50;;;1.42;;
21816;SDS011;13247;47.504;7.382;2023-03-23T02:06:14;2.58;;;1.30;;
21816;SDS011;13247;47.504;7.382;2023-03-23T02:08:59;2.22;;;1.40;;
21816;SDS011;13247;47.504;7.382;2023-03-23T02:11:45;2.25;;;1.42;;
21816;SDS011;13247;47.504;7.382;2023-03-23T02:14:30;3.65;;;1.83;;
21816;SDS011;13247;47.504;7.382;2023-03-23T02:17:24;1.60;;;1.20;;
21816;SDS011;13247;47.504;7.382;2023-03-23T02:26:35;1.02;;;0.93;;
21816;SDS011;13247;47.504;7.382;2023-03-23T02:33:20;2.47;;;1.35;;
21816;SDS011;13247;47.504;7.382;2023-03-23T02:39:33;2.30;;;1.10;;
21816;SDS011;13247;47.504;7.382;2023-03-23T02:42:28;1.20;;;1.10;;
21816;SDS011;13247;47.504;7.382;2023-03-23T02:45:15;1.33;;;1.15;;
21816;SDS011;13247;47.504;7.382;2023-03-23T02:48:02;2.03;;;1.27;;
21816;SDS011;13247;47.504;7.382;2023-03-23T02:50:49;2.50;;;1.20;;
21816;SDS011;13247;47.504;7.382;2023-03-23T02:53:37;1.10;;;1.00;;
21816;SDS011;13247;47.504;7.382;2023-03-23T02:56:25;1.48;;;1.30;;
21816;SDS011;13247;47.504;7.382;2023-03-23T02:59:12;3.13;;;1.20;;
21816;SDS011;13247;47.504;7.382;2023-03-23T03:02:01;2.58;;;1.45;;
21816;SDS011;13247;47.504;7.382;2023-03-23T03:04:55;1.00;;;0.80;;
21816;SDS011;13247;47.504;7.382;2023-03-23T03:13:38;2.67;;;1.30;;
21816;SDS011;13247;47.504;7.382;2023-03-23T03:16:33;1.17;;;1.08;;
21816;SDS011;13247;47.504;7.382;2023-03-23T03:19:30;4.03;;;1.10;;
21816;SDS011;13247;47.504;7.382;2023-03-23T03:22:19;1.50;;;1.08;;
21816;SDS011;13247;47.504;7.382;2023-03-23T03:25:06;2.65;;;1.25;;
21816;SDS011;13247;47.504;7.382;2023-03-23T03:27:53;1.20;;;1.10;;
21816;SDS011;13247;47.504;7.382;2023-03-23T03:30:40;2.40;;;1.13;;
21816;SDS011;13247;47.504;7.382;2023-03-23T03:33:28;1.98;;;1.05;;
21816;SDS011;13247;47.504;7.382;2023-03-23T03:36:16;1.48;;;1.00;;
21816;SDS011;13247;47.504;7.382;2023-03-23T03:39:09;1.55;;;1.02;;
21816;SDS011;13247;47.504;7.382;2023-03-23T03:41:54;2.40;;;1.00;;
21816;SDS011;13247;47.504;7.382;2023-03-23T03:44:39;2.22;;;0.90;;
21816;SDS011;13247;47.504;7.382;2023-03-23T03:47:24;0.88;;;0.80;;
21816;SDS011;13247;47.504;7.382;2023-03-23T03:50:09;1.30;;;1.08;;
21816;SDS011;13247;47.504;7.382;2023-03-23T03:52:54;1.13;;;0.90;;
21816;SDS011;13247;47.504;7.382;2023-03-23T03:55:39;1.88;;;0.90;;
21816;SDS011;13247;47.504;7.382;2023-03-23T03:58:28;1.90;;;0.90;;
21816;SDS011;13247;47.504;7.382;2023-03-23T04:01:15;1.70;;;0.85;;
21816;SDS011;13247;47.504;7.382;2023-03-23T04:04:02;1.63;;;1.00;;
21816;SDS011;13247;47.504;7.382;2023-03-23T04:06:48;1.15;;;1.08;;
21816;SDS011;13247;47.504;7.382;2023-03-23T04:09:32;2.97;;;1.27;;
21816;SDS011;13247;47.504;7.382;2023-03-23T04:12:17;2.25;;;1.15;;
21816;SDS011;13247;47.504;7.382;2023-03-23T04:15:02;3.65;;;1.17;;
21816;SDS011;13247;47.504;7.382;2023-03-23T04:17:47;3.47;;;1.27;;
21816;SDS011;13247;47.504;7.382;2023-03-23T04:20:32;5.25;;;1.25;;
21816;SDS011;13247;47.504;7.382;2023-03-23T04:23:21;5.15;;;1.10;;
21816;SDS011;13247;47.504;7.382;2023-03-23T04:26:06;3.15;;;1.20;;
21816;SDS011;13247;47.504;7.382;2023-03-23T04:28:51;1.70;;;1.00;;
21816;SDS011;13247;47.504;7.382;2023-03-23T04:31:36;1.25;;;0.90;;
21816;SDS011;13247;47.504;7.382;2023-03-23T04:34:21;2.00;;;0.85;;
21816;SDS011;13247;47.504;7.382;2023-03-23T04:37:06;1.08;;;0.98;;
21816;SDS011;13247;47.504;7.382;2023-03-23T04:39:52;1.08;;;0.90;;
21816;SDS011;13247;47.504;7.382;2023-03-23T04:42:43;1.58;;;1.10;;
21816;SDS011;13247;47.504;7.382;2023-03-23T04:45:29;1.20;;;0.88;;
21816;SDS011;13247;47.504;7.382;2023-03-23T04:48:13;0.88;;;0.80;;
21816;SDS011;13247;47.504;7.382;2023-03-23T04:50:58;1.10;;;1.00;;
21816;SDS011;13247;47.504;7.382;2023-03-23T04:53:46;2.13;;;1.30;;
21816;SDS011;13247;47.504;7.382;2023-03-23T04:56:31;1.70;;;1.20;;
21816;SDS011;13247;47.504;7.382;2023-03-23T04:59:15;3.58;;;1.00;;
21816;SDS011;13247;47.504;7.382;2023-03-23T05:02:00;2.30;;;0.70;;
21816;SDS011;13247;47.504;7.382;2023-03-23T05:04:46;1.48;;;1.02;;
21816;SDS011;13247;47.504;7.382;2023-03-23T05:07:30;1.00;;;0.90;;
21816;SDS011;13247;47.504;7.382;2023-03-23T05:10:15;2.08;;;1.20;;
21816;SDS011;13247;47.504;7.382;2023-03-23T05:13:00;1.05;;;0.95;;
21816;SDS011;13247;47.504;7.382;2023-03-23T05:15:44;1.33;;;1.20;;
21816;SDS011;13247;47.504;7.382;2023-03-23T05:18:29;1.08;;;0.98;;
21816;SDS011;13247;47.504;7.382;2023-03-23T05:21:16;1.00;;;0.90;;
21816;SDS011;13247;47.504;7.382;2023-03-23T05:24:01;0.80;;;0.80;;
21816;SDS011;13247;47.504;7.382;2023-03-23T05:26:45;1.27;;;0.93;;
21816;SDS011;13247;47.504;7.382;2023-03-23T05:29:31;1.50;;;1.02;;
21816;SDS011;13247;47.504;7.382;2023-03-23T05:32:17;1.65;;;1.08;;
21816;SDS011;13247;47.504;7.382;2023-03-23T05:35:04;1.10;;;0.90;;
21816;SDS011;13247;47.504;7.382;2023-03-23T05:37:49;1.10;;;0.90;;
21816;SDS011;13247;47.504;7.382;2023-03-23T05:40:36;0.82;;;0.82;;
21816;SDS011;13247;47.504;7.382;2023-03-23T05:43:21;1.25;;;1.05;;
21816;SDS011;13247;47.504;7.382;2023-03-23T05:46:05;1.05;;;0.90;;
21816;SDS011;13247;47.504;7.382;2023-03-23T05:48:51;0.95;;;0.85;;
21816;SDS011;13247;47.504;7.382;2023-03-23T05:51:37;4.70;;;1.08;;
21816;SDS011;13247;47.504;7.382;2023-03-23T05:54:22;3.00;;;0.90;;
21816;SDS011;13247;47.504;7.382;2023-03-23T05:57:06;1.60;;;1.10;;
21816;SDS011;13247;47.504;7.382;2023-03-23T05:59:52;1.48;;;0.80;;
21816;SDS011;13247;47.504;7.382;2023-03-23T06:02:37;1.63;;;1.00;;
21816;SDS011;13247;47.504;7.382;2023-03-23T06:05:21;3.05;;;1.13;;
21816;SDS011;13247;47.504;7.382;2023-03-23T06:08:07;1.73;;;1.13;;
21816;SDS011;13247;47.504;7.382;2023-03-23T06:10:51;2.03;;;1.10;;
21816;SDS011;13247;47.504;7.382;2023-03-23T06:13:36;1.75;;;1.05;;
21816;SDS011;13247;47.504;7.382;2023-03-23T06:16:21;1.02;;;0.93;;
21816;SDS011;13247;47.504;7.382;2023-03-23T06:19:06;2.35;;;1.10;;
21816;SDS011;13247;47.504;7.382;2023-03-23T06:21:51;1.52;;;1.00;;
21816;SDS011;13247;47.504;7.382;2023-03-23T06:24:37;2.97;;;1.40;;
21816;SDS011;13247;47.504;7.382;2023-03-23T06:27:22;1.95;;;0.98;;
21816;SDS011;13247;47.504;7.382;2023-03-23T06:30:07;2.80;;;1.40;;
21816;SDS011;13247;47.504;7.382;2023-03-23T06:32:53;2.03;;;1.00;;
21816;SDS011;13247;47.504;7.382;2023-03-23T06:35:39;1.50;;;0.90;;
21816;SDS011;13247;47.504;7.382;2023-03-23T06:38:24;1.60;;;0.98;;
21816;SDS011;13247;47.504;7.382;2023-03-23T06:41:10;1.50;;;0.90;;
21816;SDS011;13247;47.504;7.382;2023-03-23T06:43:55;1.30;;;1.20;;
21816;SDS011;13247;47.504;7.382;2023-03-23T06:46:40;4.35;;;1.75;;
21816;SDS011;13247;47.504;7.382;2023-03-23T06:49:25;2.40;;;1.30;;
21816;SDS011;13247;47.504;7.382;2023-03-23T06:52:10;1.88;;;1.20;;
21816;SDS011;13247;47.504;7.382;2023-03-23T06:54:55;2.20;;;1.30;;
21816;SDS011;13247;47.504;7.382;2023-03-23T06:57:40;1.77;;;1.10;;
21816;SDS011;13247;47.504;7.382;2023-03-23T07:00:25;1.48;;;1.20;;
21816;SDS011;13247;47.504;7.382;2023-03-23T07:03:10;2.78;;;1.02;;
21816;SDS011;13247;47.504;7.382;2023-03-23T07:05:55;2.28;;;1.67;;
21816;SDS011;13247;47.504;7.382;2023-03-23T07:08:40;4.57;;;1.40;;
21816;SDS011;13247;47.504;7.382;2023-03-23T07:11:25;1.27;;;1.17;;
21816;SDS011;13247;47.504;7.382;2023-03-23T07:14:09;1.70;;;1.30;;
21816;SDS011;13247;47.504;7.382;2023-03-23T07:16:54;1.95;;;1.55;;
21816;SDS011;13247;47.504;7.382;2023-03-23T07:19:39;1.50;;;1.27;;
21816;SDS011;13247;47.504;7.382;2023-03-23T07:22:24;4.95;;;1.88;;
21816;SDS011;13247;47.504;7.382;2023-03-23T07:25:09;2.15;;;1.40;;
21816;SDS011;13247;47.504;7.382;2023-03-23T07:27:54;1.55;;;1.38;;
21816;SDS011;13247;47.504;7.382;2023-03-23T07:30:39;2.13;;;1.42;;
21816;SDS011;13247;47.504;7.382;2023-03-23T07:33:23;2.78;;;1.50;;
21816;SDS011;13247;47.504;7.382;2023-03-23T07:36:08;1.50;;;1.05;;
21816;SDS011;13247;47.504;7.382;2023-03-23T07:38:53;1.50;;;1.40;;
21816;SDS011;13247;47.504;7.382;2023-03-23T07:41:38;2.33;;;1.45;;
21816;SDS011;13247;47.504;7.382;2023-03-23T07:44:22;2.60;;;1.42;;
21816;SDS011;13247;47.504;7.382;2023-03-23T07:47:07;2.38;;;1.60;;
21816;SDS011;13247;47.504;7.382;2023-03-23T07:49:52;2.92;;;1.23;;
21816;SDS011;13247;47.504;7.382;2023-03-23T07:52:37;2.85;;;1.50;;
21816;SDS011;13247;47.504;7.382;2023-03-23T07:55:23;2.67;;;1.27;;
21816;SDS011;13247;47.504;7.382;2023-03-23T07:58:08;2.88;;;1.60;;
21816;SDS011;13247;47.504;7.382;2023-03-23T08:00:53;4.80;;;1.60;;
21816;SDS011;13247;47.504;7.382;2023-03-23T08:03:41;1.75;;;1.65;;
21816;SDS011;13247;47.504;7.382;2023-03-23T08:06:26;1.83;;;1.50;;
21816;SDS011;13247;47.504;7.382;2023-03-23T08:09:11;2.35;;;1.65;;
21816;SDS011;13247;47.504;7.382;2023-03-23T08:11:57;3.33;;;1.50;;
21816;SDS011;13247;47.504;7.382;2023-03-23T08:14:42;3.08;;;1.70;;
21816;SDS011;13247;47.504;7.382;2023-03-23T08:17:26;3.45;;;1.70;;
21816;SDS011;13247;47.504;7.382;2023-03-23T08:20:11;2.58;;;1.58;;
21816;SDS011;13247;47.504;7.382;2023-03-23T08:22:56;3.45;;;1.70;;
21816;SDS011;13247;47.504;7.382;2023-03-23T08:25:42;2.22;;;1.70;;
21816;SDS011;13247;47.504;7.382;2023-03-23T08:28:27;5.90;;;1.83;;
21816;SDS011;13247;47.504;7.382;2023-03-23T08:31:12;3.30;;;1.67;;
21816;SDS011;13247;47.504;7.382;2023-03-23T08:34:04;1.80;;;1.63;;
21816;SDS011;13247;47.504;7.382;2023-03-23T08:37:14;3.65;;;1.90;;
21816;SDS011;13247;47.504;7.382;2023-03-23T08:40:04;4.60;;;1.90;;
21816;SDS011;13247;47.504;7.382;2023-03-23T08:42:55;3.97;;;1.80;;
21816;SDS011;13247;47.504;7.382;2023-03-23T08:45:40;3.70;;;1.70;;
21816;SDS011;13247;47.504;7.382;2023-03-23T08:48:25;3.15;;;2.08;;
21816;SDS011;13247;47.504;7.382;2023-03-23T08:51:10;6.05;;;2.42;;
21816;SDS011;13247;47.504;7.382;2023-03-23T08:53:55;6.30;;;2.67;;
21816;SDS011;13247;47.504;7.382;2023-03-23T08:56:39;5.90;;;2.50;;
21816;SDS011;13247;47.504;7.382;2023-03-23T08:59:24;3.50;;;2.33;;
21816;SDS011;13247;47.504;7.382;2023-03-23T09:02:10;5.45;;;2.42;;
21816;SDS011;13247;47.504;7.382;2023-03-23T09:04:55;4.38;;;2.10;;
21816;SDS011;13247;47.504;7.382;2023-03-23T09:07:41;7.55;;;1.55;;
21816;SDS011;13247;47.504;7.382;2023-03-23T09:10:28;2.42;;;1.70;;
21816;SDS011;13247;47.504;7.382;2023-03-23T09:13:13;2.38;;;1.70;;
21816;SDS011;13247;47.504;7.382;2023-03-23T09:15:58;3.22;;;1.83;;
21816;SDS011;13247;47.504;7.382;2023-03-23T09:18:43;3.53;;;2.28;;
21816;SDS011;13247;47.504;7.382;2023-03-23T09:21:28;3.60;;;1.90;;
21816;SDS011;13247;47.504;7.382;2023-03-23T09:24:13;6.95;;;1.73;;
21816;SDS011;13247;47.504;7.382;2023-03-23T09:26:58;4.70;;;1.67;;
21816;SDS011;13247;47.504;7.382;2023-03-23T09:29:43;1.92;;;1.30;;
21816;SDS011;13247;47.504;7.382;2023-03-23T09:32:29;2.20;;;1.38;;
21816;SDS011;13247;47.504;7.382;2023-03-23T09:35:14;1.65;;;1.40;;
21816;SDS011;13247;47.504;7.382;2023-03-23T09:38:00;4.82;;;1.48;;
21816;SDS011;13247;47.504;7.382;2023-03-23T09:40:46;5.38;;;1.30;;
21816;SDS011;13247;47.504;7.382;2023-03-23T09:43:45;5.57;;;1.25;;
21816;SDS011;13247;47.504;7.382;2023-03-23T09:46:54;2.83;;;1.20;;
21816;SDS011;13247;47.504;7.382;2023-03-23T09:49:43;1.08;;;0.98;;
21816;SDS011;13247;47.504;7.382;2023-03-23T09:53:00;1.77;;;1.35;;
21816;SDS011;13247;47.504;7.382;2023-03-23T09:55:49;3.08;;;1.23;;
21816;SDS011;13247;47.504;7.382;2023-03-23T09:58:41;1.90;;;1.30;;
21816;SDS011;13247;47.504;7.382;2023-03-23T10:01:44;4.80;;;1.73;;
21816;SDS011;13247;47.504;7.382;2023-03-23T10:04:42;3.20;;;1.40;;
21816;SDS011;13247;47.504;7.382;2023-03-23T10:07:30;3.13;;;2.10;;
21816;SDS011;13247;47.504;7.382;2023-03-23T10:10:15;5.25;;;1.80;;
21816;SDS011;13247;47.504;7.382;2023-03-23T10:13:03;4.80;;;2.40;;
21816;SDS011;13247;47.504;7.382;2023-03-23T10:16:00;3.70;;;1.90;;
21816;SDS011;13247;47.504;7.382;2023-03-23T10:18:49;3.90;;;1.58;;
21816;SDS011;13247;47.504;7.382;2023-03-23T10:21:52;2.08;;;1.25;;
21816;SDS011;13247;47.504;7.382;2023-03-23T10:24:43;4.40;;;1.65;;
21816;SDS011;13247;47.504;7.382;2023-03-23T10:30:45;1.83;;;1.65;;
21816;SDS011;13247;47.504;7.382;2023-03-23T10:33:43;1.73;;;1.52;;
21816;SDS011;13247;47.504;7.382;2023-03-23T10:36:35;1.88;;;1.40;;
21816;SDS011;13247;47.504;7.382;2023-03-23T10:39:24;5.53;;;3.05;;
21816;SDS011;13247;47.504;7.382;2023-03-23T10:42:32;23.92;;;8.50;;
21816;SDS011;13247;47.504;7.382;2023-03-23T10:45:26;9.32;;;3.67;;
21816;SDS011;13247;47.504;7.382;2023-03-23T10:48:24;3.22;;;2.10;;
21816;SDS011;13247;47.504;7.382;2023-03-23T10:51:22;0.95;;;0.90;;
21816;SDS011;13247;47.504;7.382;2023-03-23T10:54:11;2.22;;;1.00;;
21816;SDS011;13247;47.504;7.382;2023-03-23T10:57:23;3.05;;;0.85;;
21816;SDS011;13247;47.504;7.382;2023-03-23T11:03:05;3.55;;;0.90;;
21816;SDS011;13247;47.504;7.382;2023-03-23T11:06:00;1.00;;;0.90;;
21816;SDS011;13247;47.504;7.382;2023-03-23T11:08:48;1.52;;;0.90;;
21816;SDS011;13247;47.504;7.382;2023-03-23T11:11:48;1.90;;;1.10;;
21816;SDS011;13247;47.504;7.382;2023-03-23T11:14:35;2.15;;;1.10;;
21816;SDS011;13247;47.504;7.382;2023-03-23T11:17:24;0.82;;;0.82;;
21816;SDS011;13247;47.504;7.382;2023-03-23T11:20:11;3.28;;;1.20;;
21816;SDS011;13247;47.504;7.382;2023-03-23T11:22:57;1.70;;;0.95;;
21816;SDS011;13247;47.504;7.382;2023-03-23T11:29:04;1.45;;;0.90;;
21816;SDS011;13247;47.504;7.382;2023-03-23T11:34:44;1.58;;;0.95;;
21816;SDS011;13247;47.504;7.382;2023-03-23T11:37:35;4.95;;;1.08;;
21816;SDS011;13247;47.504;7.382;2023-03-23T11:40:27;2.13;;;1.10;;
21816;SDS011;13247;47.504;7.382;2023-03-23T11:43:23;2.35;;;1.00;;
21816;SDS011;13247;47.504;7.382;2023-03-23T11:46:18;1.50;;;1.13;;
21816;SDS011;13247;47.504;7.382;2023-03-23T11:49:05;1.83;;;1.00;;
21816;SDS011;13247;47.504;7.382;2023-03-23T11:52:02;1.42;;;1.00;;
21816;SDS011;13247;47.504;7.382;2023-03-23T11:58:13;1.35;;;1.10;;
21816;SDS011;13247;47.504;7.382;2023-03-23T12:04:21;2.75;;;1.10;;
21816;SDS011;13247;47.504;7.382;2023-03-23T12:07:14;1.15;;;0.85;;
21816;SDS011;13247;47.504;7.382;2023-03-23T12:41:01;2.83;;;1.58;;
21816;SDS011;13247;47.504;7.382;2023-03-23T12:44:03;1.55;;;1.20;;
21816;SDS011;13247;47.504;7.382;2023-03-23T12:53:22;2.42;;;1.45;;
21816;SDS011;13247;47.504;7.382;2023-03-23T12:56:18;3.70;;;2.15;;
21816;SDS011;13247;47.504;7.382;2023-03-23T13:02:21;2.35;;;1.73;;
21816;SDS011;13247;47.504;7.382;2023-03-23T13:05:50;3.78;;;1.85;;
21816;SDS011;13247;47.504;7.382;2023-03-23T13:08:47;2.00;;;1.40;;
21816;SDS011;13247;47.504;7.382;2023-03-23T13:11:36;5.78;;;2.60;;
21816;SDS011;13247;47.504;7.382;2023-03-23T13:21:02;2.08;;;1.48;;
21816;SDS011;13247;47.504;7.382;2023-03-23T13:24:15;1.67;;;1.10;;
21816;SDS011;13247;47.504;7.382;2023-03-23T13:27:05;1.92;;;1.40;;
21816;SDS011;13247;47.504;7.382;2023-03-23T13:29:55;4.65;;;1.45;;
21816;SDS011;13247;47.504;7.382;2023-03-23T13:32:41;2.30;;;1.55;;
21816;SDS011;13247;47.504;7.382;2023-03-23T13:35:32;1.70;;;1.30;;
21816;SDS011;13247;47.504;7.382;2023-03-23T13:38:23;2.47;;;1.10;;
21816;SDS011;13247;47.504;7.382;2023-03-23T13:41:10;1.40;;;1.02;;
21816;SDS011;13247;47.504;7.382;2023-03-23T13:44:20;2.38;;;1.20;;
21816;SDS011;13247;47.504;7.382;2023-03-23T13:47:20;4.32;;;1.80;;
21816;SDS011;13247;47.504;7.382;2023-03-23T13:53:11;1.58;;;1.10;;
21816;SDS011;13247;47.504;7.382;2023-03-23T13:56:06;3.20;;;1.17;;
21816;SDS011;13247;47.504;7.382;2023-03-23T14:01:48;1.40;;;1.00;;
21816;SDS011;13247;47.504;7.382;2023-03-23T14:04:34;16.45;;;5.90;;
21816;SDS011;13247;47.504;7.382;2023-03-23T14:07:19;5.47;;;2.17;;
21816;SDS011;13247;47.504;7.382;2023-03-23T14:10:05;3.22;;;1.50;;
21816;SDS011;13247;47.504;7.382;2023-03-23T14:12:52;1.40;;;1.10;;
21816;SDS011;13247;47.504;7.382;2023-03-23T14:15:41;2.60;;;1.42;;
21816;SDS011;13247;47.504;7.382;2023-03-23T14:18:30;3.15;;;1.58;;
21816;SDS011;13247;47.504;7.382;2023-03-23T14:21:25;2.25;;;1.00;;
21816;SDS011;13247;47.504;7.382;2023-03-23T14:24:24;1.67;;;1.23;;
21816;SDS011;13247;47.504;7.382;2023-03-23T14:27:17;1.10;;;1.00;;
21816;SDS011;13247;47.504;7.382;2023-03-23T14:30:06;1.88;;;1.38;;
21816;SDS011;13247;47.504;7.382;2023-03-23T14:32:53;1.35;;;1.08;;
21816;SDS011;13247;47.504;7.382;2023-03-23T14:35:48;2.28;;;1.30;;
21816;SDS011;13247;47.504;7.382;2023-03-23T14:38:33;2.00;;;1.35;;
21816;SDS011;13247;47.504;7.382;2023-03-23T14:41:18;2.58;;;1.27;;
21816;SDS011;13247;47.504;7.382;2023-03-23T14:44:04;2.63;;;1.20;;
21816;SDS011;13247;47.504;7.382;2023-03-23T14:46:53;1.83;;;1.27;;
21816;SDS011;13247;47.504;7.382;2023-03-23T14:49:41;1.98;;;1.67;;
21816;SDS011;13247;47.504;7.382;2023-03-23T14:52:28;1.80;;;1.30;;
21816;SDS011;13247;47.504;7.382;2023-03-23T14:55:17;3.40;;;1.45;;
21816;SDS011;13247;47.504;7.382;2023-03-23T14:58:08;1.75;;;1.30;;
21816;SDS011;13247;47.504;7.382;2023-03-23T15:04:04;3.75;;;1.40;;
21816;SDS011;13247;47.504;7.382;2023-03-23T15:06:55;4.85;;;1.70;;
21816;SDS011;13247;47.504;7.382;2023-03-23T15:09:46;2.05;;;1.50;;
21816;SDS011;13247;47.504;7.382;2023-03-23T15:12:31;2.10;;;1.55;;
21816;SDS011;13247;47.504;7.382;2023-03-23T15:15:22;3.10;;;1.80;;
21816;SDS011;13247;47.504;7.382;2023-03-23T15:21:28;4.15;;;2.13;;
21816;SDS011;13247;47.504;7.382;2023-03-23T15:24:33;3.47;;;1.85;;
21816;SDS011;13247;47.504;7.382;2023-03-23T15:30:15;3.17;;;1.80;;
21816;SDS011;13247;47.504;7.382;2023-03-23T15:33:09;2.92;;;1.88;;
21816;SDS011;13247;47.504;7.382;2023-03-23T15:35:56;3.97;;;2.47;;
21816;SDS011;13247;47.504;7.382;2023-03-23T15:38:42;4.85;;;2.40;;
21816;SDS011;13247;47.504;7.382;2023-03-23T15:41:30;5.72;;;3.00;;
21816;SDS011;13247;47.504;7.382;2023-03-23T15:44:23;6.22;;;3.10;;
21816;SDS011;13247;47.504;7.382;2023-03-23T15:47:15;3.28;;;2.53;;
21816;SDS011;13247;47.504;7.382;2023-03-23T15:50:47;9.68;;;3.10;;
21816;SDS011;13247;47.504;7.382;2023-03-23T15:53:23;4.78;;;2.72;;
21816;SDS011;13247;47.504;7.382;2023-03-23T15:56:10;5.60;;;2.58;;
21816;SDS011;13247;47.504;7.382;2023-03-23T15:58:57;5.95;;;2.60;;
21816;SDS011;13247;47.504;7.382;2023-03-23T16:01:43;4.68;;;2.55;;
21816;SDS011;13247;47.504;7.382;2023-03-23T16:04:28;4.70;;;2.13;;
21816;SDS011;13247;47.504;7.382;2023-03-23T16:07:22;6.03;;;2.17;;
21816;SDS011;13247;47.504;7.382;2023-03-23T16:10:10;4.82;;;2.17;;
21816;SDS011;13247;47.504;7.382;2023-03-23T16:13:02;2.55;;;1.85;;
21816;SDS011;13247;47.504;7.382;2023-03-23T16:15:48;3.05;;;1.70;;
21816;SDS011;13247;47.504;7.382;2023-03-23T16:18:34;1.63;;;1.40;;
21816;SDS011;13247;47.504;7.382;2023-03-23T16:21:18;4.05;;;1.65;;
21816;SDS011;13247;47.504;7.382;2023-03-23T16:24:04;3.83;;;2.47;;
21816;SDS011;13247;47.504;7.382;2023-03-23T16:26:50;6.85;;;3.88;;
21816;SDS011;13247;47.504;7.382;2023-03-23T16:29:34;6.97;;;3.22;;
21816;SDS011;13247;47.504;7.382;2023-03-23T16:32:19;8.02;;;4.20;;
21816;SDS011;13247;47.504;7.382;2023-03-23T16:35:04;9.38;;;4.07;;
21816;SDS011;13247;47.504;7.382;2023-03-23T16:37:50;8.52;;;3.13;;
21816;SDS011;13247;47.504;7.382;2023-03-23T16:40:36;3.83;;;2.70;;
21816;SDS011;13247;47.504;7.382;2023-03-23T16:43:21;4.03;;;2.60;;
21816;SDS011;13247;47.504;7.382;2023-03-23T16:46:06;4.93;;;3.13;;
21816;SDS011;13247;47.504;7.382;2023-03-23T16:48:54;4.43;;;3.03;;
21816;SDS011;13247;47.504;7.382;2023-03-23T16:51:38;3.33;;;2.40;;
21816;SDS011;13247;47.504;7.382;2023-03-23T16:54:24;4.93;;;2.03;;
21816;SDS011;13247;47.504;7.382;2023-03-23T16:57:08;3.42;;;2.10;;
21816;SDS011;13247;47.504;7.382;2023-03-23T16:59:53;3.75;;;2.65;;
21816;SDS011;13247;47.504;7.382;2023-03-23T17:02:41;5.53;;;2.95;;
21816;SDS011;13247;47.504;7.382;2023-03-23T17:05:27;3.40;;;2.38;;
21816;SDS011;13247;47.504;7.382;2023-03-23T17:08:12;2.72;;;2.03;;
21816;SDS011;13247;47.504;7.382;2023-03-23T17:10:56;4.80;;;2.78;;
21816;SDS011;13247;47.504;7.382;2023-03-23T17:13:41;5.22;;;2.97;;
21816;SDS011;13247;47.504;7.382;2023-03-23T17:16:25;17.48;;;6.40;;
21816;SDS011;13247;47.504;7.382;2023-03-23T17:19:10;14.27;;;6.25;;
21816;SDS011;13247;47.504;7.382;2023-03-23T17:21:56;15.25;;;7.60;;
21816;SDS011;13247;47.504;7.382;2023-03-23T17:24:40;10.40;;;5.65;;
21816;SDS011;13247;47.504;7.382;2023-03-23T17:27:26;8.65;;;4.97;;
21816;SDS011;13247;47.504;7.382;2023-03-23T17:30:12;2.00;;;1.80;;
21816;SDS011;13247;47.504;7.382;2023-03-23T17:32:57;8.35;;;3.10;;
21816;SDS011;13247;47.504;7.382;2023-03-23T17:35:41;7.18;;;3.08;;
21816;SDS011;13247;47.504;7.382;2023-03-23T17:38:28;2.10;;;1.90;;
21816;SDS011;13247;47.504;7.382;2023-03-23T17:41:13;4.45;;;2.03;;
21816;SDS011;13247;47.504;7.382;2023-03-23T17:43:58;3.38;;;2.00;;
21816;SDS011;13247;47.504;7.382;2023-03-23T17:46:43;4.78;;;3.28;;
21816;SDS011;13247;47.504;7.382;2023-03-23T17:49:28;4.63;;;2.45;;
21816;SDS011;13247;47.504;7.382;2023-03-23T17:52:13;7.10;;;4.05;;
21816;SDS011;13247;47.504;7.382;2023-03-23T17:54:58;7.60;;;4.13;;
21816;SDS011;13247;47.504;7.382;2023-03-23T17:57:43;18.85;;;7.70;;
21816;SDS011;13247;47.504;7.382;2023-03-23T18:00:28;10.20;;;6.38;;
21816;SDS011;13247;47.504;7.382;2023-03-23T18:03:13;6.45;;;4.80;;
21816;SDS011;13247;47.504;7.382;2023-03-23T18:05:59;3.67;;;2.40;;
21816;SDS011;13247;47.504;7.382;2023-03-23T18:08:46;8.07;;;3.67;;
21816;SDS011;13247;47.504;7.382;2023-03-23T18:11:30;10.50;;;6.70;;
21816;SDS011;13247;47.504;7.382;2023-03-23T18:14:15;8.65;;;4.10;;
21816;SDS011;13247;47.504;7.382;2023-03-23T18:17:00;12.65;;;6.85;;
21816;SDS011;13247;47.504;7.382;2023-03-23T18:19:45;10.70;;;6.70;;
21816;SDS011;13247;47.504;7.382;2023-03-23T18:22:30;10.15;;;5.15;;
21816;SDS011;13247;47.504;7.382;2023-03-23T18:25:15;11.00;;;5.57;;
21816;SDS011;13247;47.504;7.382;2023-03-23T18:27:59;9.85;;;6.22;;
21816;SDS011;13247;47.504;7.382;2023-03-23T18:30:44;8.60;;;6.57;;
21816;SDS011;13247;47.504;7.382;2023-03-23T18:33:31;5.40;;;3.88;;
21816;SDS011;13247;47.504;7.382;2023-03-23T18:36:21;8.23;;;4.18;;